Poteau, Oklahoma
Current Conditions -  °F | °C
As of 1:55 AM on Friday 19 Dec 2014 (Local Time) from KRKR Reporting Station
Overcast Overcast  
Wind Chill: 41°   Ceiling: 600
Heat Index: 41°   Visibility: 7mi
Dew Point: 38°   Wind: 0mph
Humidity: 90%   Direction: NA
Pressure: 30.21"   Gusts: NA
Location:  35.05°N, 94.62°W
Report Text: KRKR 190755Z AUTO 00000KT 7SM OVC006 05/04 A3021 RMK AO2 T00500035
Loading
Personal Weather Stations






























Interactive Weather Map New forecast layout! Learn more

10-Day Weather Forecast

Advertisements
Track Severe Weather on mobile